Time;durP1;ratioP1;P1;durP2;ratioP2;P2;SDS_P1;SDS_P2;PMS_P1;PMS_P2;Temp;Humidity;BMP_temperature;BMP_pressure;BME280_temperature;BME280_humidity;BME280_pressure;Samples;Min_cycle;Max_cycle;Signal;HPM_P1;HPM_P2
2023/05/08 00:00:17;;;;;;;3.42;3.10;;;15.00;99.90;;;;;;4992540;28;20022;-75
2023/05/08 00:02:43;;;;;;;3.28;2.97;;;15.00;99.90;;;;;;4992378;28;20034;-76
2023/05/08 00:05:09;;;;;;;3.38;3.08;;;15.00;99.90;;;;;;4987216;28;20408;-76
2023/05/08 00:07:37;;;;;;;3.17;2.88;;;15.00;99.90;;;;;;4994551;28;20034;-75
2023/05/08 00:10:04;;;;;;;3.30;3.00;;;14.90;99.90;;;;;;4965161;28;20072;-75
2023/05/08 00:12:30;;;;;;;3.33;3.03;;;14.90;99.90;;;;;;4992382;28;20034;-75
2023/05/08 00:14:56;;;;;;;3.75;3.17;;;14.90;99.90;;;;;;4989416;28;20030;-75
2023/05/08 00:17:21;;;;;;;3.45;3.15;;;14.90;99.90;;;;;;4989863;28;20026;-76
2023/05/08 00:19:48;;;;;;;4.82;3.90;;;14.90;99.90;;;;;;4991838;28;20030;-75
2023/05/08 00:22:13;;;;;;;5.60;4.97;;;14.80;99.90;;;;;;4991724;28;20027;-76
2023/05/08 00:24:39;;;;;;;4.90;4.43;;;14.80;99.90;;;;;;4973507;28;20057;-75
2023/05/08 00:27:06;;;;;;;4.38;3.83;;;14.80;99.90;;;;;;4959317;28;20050;-76
2023/05/08 00:29:33;;;;;;;4.70;3.83;;;14.80;99.90;;;;;;4991751;28;20620;-76
2023/05/08 00:31:58;;;;;;;3.67;3.30;;;14.80;99.90;;;;;;4991497;28;20027;-75
2023/05/08 00:34:24;;;;;;;4.18;3.78;;;14.80;99.90;;;;;;4991444;28;20057;-76
2023/05/08 00:36:50;;;;;;;5.60;4.43;;;14.70;99.90;;;;;;5000663;28;20098;-75
2023/05/08 00:39:16;;;;;;;5.07;4.18;;;14.70;99.90;;;;;;5002314;28;20071;-76
2023/05/08 00:41:41;;;;;;;4.03;3.53;;;14.70;99.90;;;;;;4992385;28;20030;-76
2023/05/08 00:44:07;;;;;;;3.83;3.40;;;14.70;99.90;;;;;;4987677;28;20030;-76
2023/05/08 00:46:34;;;;;;;3.72;3.40;;;14.70;99.90;;;;;;4994218;28;20022;-75
2023/05/08 00:49:00;;;;;;;4.55;3.85;;;14.70;99.90;;;;;;4994870;28;20033;-75
2023/05/08 00:51:26;;;;;;;4.03;3.63;;;14.70;99.90;;;;;;4994556;28;20022;-76
2023/05/08 00:53:52;;;;;;;4.40;3.60;;;14.70;99.90;;;;;;4995235;28;20030;-75
2023/05/08 00:56:20;;;;;;;4.10;3.65;;;14.70;99.90;;;;;;5009690;28;20040;-75
2023/05/08 00:58:46;;;;;;;4.30;3.88;;;14.70;99.90;;;;;;5001018;28;20553;-76
2023/05/08 01:01:13;;;;;;;4.10;3.67;;;14.70;99.90;;;;;;4978147;28;20022;-76
2023/05/08 01:03:38;;;;;;;4.60;4.20;;;14.60;99.90;;;;;;5005629;28;20076;-75
2023/05/08 01:06:14;;;;;;;3.88;3.55;;;14.60;99.90;;;;;;5013574;28;20018;-75
2023/05/08 01:08:43;;;;;;;4.35;3.80;;;14.50;99.90;;;;;;5008086;28;20030;-74
2023/05/08 01:11:27;;;;;;;3.45;3.15;;;14.50;99.90;;;;;;4997645;28;20026;-75
2023/05/08 01:14:14;;;;;;;3.85;3.15;;;14.50;99.90;;;;;;4976471;28;20085;-75
2023/05/08 01:17:08;;;;;;;3.45;3.00;;;14.50;99.90;;;;;;4989799;28;20066;-76
2023/05/08 01:19:55;;;;;;;3.72;3.17;;;14.50;99.90;;;;;;4999563;28;20162;-75
2023/05/08 01:22:45;;;;;;;3.10;2.80;;;14.50;99.90;;;;;;4999755;28;20400;-75
2023/05/08 01:25:48;;;;;;;2.78;2.58;;;14.50;99.90;;;;;;4971869;28;20391;-76
2023/05/08 01:28:32;;;;;;;2.90;2.70;;;14.40;99.90;;;;;;4995886;28;20037;-75
2023/05/08 01:31:23;;;;;;;2.88;2.67;;;14.40;99.90;;;;;;4975302;28;20049;-76
2023/05/08 01:33:58;;;;;;;2.58;2.38;;;14.40;99.90;;;;;;4996915;28;20046;-75
2023/05/08 01:36:39;;;;;;;3.03;2.80;;;14.50;99.90;;;;;;4994253;28;20329;-75
2023/05/08 01:39:19;;;;;;;3.35;3.05;;;14.50;99.80;;;;;;5006854;28;20105;-75
2023/05/08 01:42:05;;;;;;;4.05;3.53;;;14.50;99.70;;;;;;4992905;28;20471;-75
2023/05/08 01:44:40;;;;;;;5.03;4.25;;;14.50;99.70;;;;;;4991302;28;20030;-75
2023/05/08 01:47:08;;;;;;;5.72;4.53;;;14.40;99.40;;;;;;5018249;28;20018;-74
2023/05/08 01:49:43;;;;;;;5.45;4.55;;;14.40;99.30;;;;;;5003155;28;20026;-76
2023/05/08 01:52:19;;;;;;;9.13;6.45;;;14.40;99.20;;;;;;4992325;28;20118;-76
2023/05/08 01:54:57;;;;;;;6.90;5.50;;;14.30;99.00;;;;;;4990047;28;20023;-76
2023/05/08 01:57:27;;;;;;;6.57;5.88;;;14.30;99.10;;;;;;4960113;28;20034;-76
2023/05/08 01:59:59;;;;;;;7.82;5.28;;;14.30;99.10;;;;;;4978488;28;20030;-76
2023/05/08 02:02:27;;;;;;;5.13;4.32;;;14.30;99.20;;;;;;4996028;28;20465;-76
2023/05/08 02:04:54;;;;;;;6.07;5.15;;;14.20;99.20;;;;;;4995134;28;20542;-76
2023/05/08 02:07:22;;;;;;;5.20;4.47;;;14.20;99.10;;;;;;4998814;28;20049;-77
2023/05/08 02:09:49;;;;;;;6.53;4.93;;;14.20;99.20;;;;;;4996486;28;20030;-76
2023/05/08 02:12:16;;;;;;;8.15;6.45;;;14.20;99.20;;;;;;4995261;28;20026;-76
2023/05/08 02:14:45;;;;;;;6.57;5.20;;;14.10;99.20;;;;;;5005142;28;20087;-75
2023/05/08 02:17:13;;;;;;;7.38;5.47;;;14.10;99.20;;;;;;4996105;28;20046;-75
2023/05/08 02:19:41;;;;;;;7.28;5.90;;;14.10;99.40;;;;;;4997813;28;20077;-75
2023/05/08 02:22:08;;;;;;;6.68;5.35;;;14.10;99.40;;;;;;4996816;28;20023;-74
2023/05/08 02:24:35;;;;;;;4.70;4.30;;;14.00;99.40;;;;;;4991604;28;20041;-75
2023/05/08 02:27:02;;;;;;;5.25;4.75;;;14.00;99.40;;;;;;4996730;28;20152;-74
2023/05/08 02:29:29;;;;;;;4.70;4.18;;;14.00;99.40;;;;;;4997158;28;20133;-75
2023/05/08 02:31:55;;;;;;;5.07;4.68;;;14.00;99.30;;;;;;4987685;28;20050;-75
2023/05/08 02:34:22;;;;;;;4.28;3.80;;;14.00;99.30;;;;;;4995234;28;20046;-74
2023/05/08 02:36:50;;;;;;;3.85;3.55;;;13.90;99.30;;;;;;4995746;28;20097;-75
2023/05/08 02:39:18;;;;;;;3.28;2.97;;;14.00;99.30;;;;;;4995009;28;20073;-75
2023/05/08 02:41:44;;;;;;;3.35;3.00;;;14.00;99.40;;;;;;4978022;28;20018;-75
2023/05/08 02:44:12;;;;;;;3.53;3.22;;;14.00;99.60;;;;;;4996406;28;20061;-75
2023/05/08 02:47:01;;;;;;;5.20;4.72;;;14.00;99.40;;;;;;4977274;28;20218;-76
2023/05/08 02:49:49;;;;;;;6.72;5.60;;;13.90;99.40;;;;;;4991193;28;20035;-76
2023/05/08 02:52:29;;;;;;;6.70;5.60;;;13.80;99.50;;;;;;4974425;28;20060;-75
2023/05/08 02:55:14;;;;;;;6.28;5.68;;;13.70;99.70;;;;;;4977892;28;20375;-77
2023/05/08 02:58:03;;;;;;;5.93;4.57;;;13.60;99.80;;;;;;4985440;28;20110;-75
2023/05/08 03:00:36;;;;;;;6.57;4.57;;;13.60;99.90;;;;;;4996153;28;20062;-75
2023/05/08 03:03:18;;;;;;;5.28;4.78;;;13.60;99.90;;;;;;4997168;28;20026;-77
2023/05/08 03:05:50;;;;;;;4.35;3.90;;;13.60;99.90;;;;;;5001376;28;20030;-75
2023/05/08 03:08:22;;;;;;;4.93;3.97;;;13.60;99.90;;;;;;4989458;28;20031;-75
2023/05/08 03:10:52;;;;;;;5.55;4.20;;;13.60;99.90;;;;;;4994136;28;20163;-76
2023/05/08 03:13:20;;;;;;;4.70;4.20;;;13.50;99.90;;;;;;4995420;28;20026;-75
2023/05/08 03:16:08;;;;;;;4.38;3.97;;;13.50;99.90;;;;;;4990876;28;20027;-75
2023/05/08 03:18:56;;;;;;;8.82;5.72;;;13.50;99.90;;;;;;4981095;28;20038;-76
2023/05/08 03:21:25;;;;;;;8.32;5.93;;;13.50;99.90;;;;;;4989154;28;20022;-74
2023/05/08 03:23:51;;;;;;;5.97;4.90;;;13.40;99.90;;;;;;4993984;28;20023;-75
2023/05/08 03:26:21;;;;;;;7.88;6.18;;;13.40;99.90;;;;;;4989936;28;20050;-77
2023/05/08 03:28:52;;;;;;;7.57;6.43;;;13.30;99.90;;;;;;5001361;28;20113;-77
2023/05/08 03:31:20;;;;;;;6.63;5.33;;;13.30;99.90;;;;;;4986926;28;20026;-77
2023/05/08 03:33:47;;;;;;;6.85;5.75;;;13.20;99.90;;;;;;4996006;28;20419;-77
2023/05/08 03:36:16;;;;;;;6.28;5.65;;;13.20;99.90;;;;;;4996560;28;20041;-76
2023/05/08 03:38:42;;;;;;;9.50;6.13;;;13.20;99.90;;;;;;5000320;28;20045;-78
2023/05/08 03:41:09;;;;;;;7.43;6.38;;;13.10;99.90;;;;;;5000670;28;20097;-76
2023/05/08 03:43:36;;;;;;;7.45;6.25;;;13.10;99.90;;;;;;4994363;28;20033;-78
2023/05/08 03:46:05;;;;;;;7.72;5.95;;;13.00;99.90;;;;;;4994554;28;20132;-77
2023/05/08 03:48:35;;;;;;;9.30;7.10;;;13.00;99.90;;;;;;4992097;28;20030;-79
2023/05/08 03:51:02;;;;;;;7.50;6.05;;;13.00;99.90;;;;;;5013583;28;20030;-77
2023/05/08 03:53:31;;;;;;;5.95;5.35;;;13.00;99.90;;;;;;4999400;28;20062;-77
2023/05/08 03:55:58;;;;;;;5.38;4.82;;;12.90;99.90;;;;;;4977154;28;20121;-76
2023/05/08 03:58:31;;;;;;;6.35;5.60;;;13.00;99.90;;;;;;4980078;28;20035;-76
2023/05/08 04:01:24;;;;;;;6.30;5.65;;;13.00;99.90;;;;;;4968094;28;20494;-77
2023/05/08 04:04:06;;;;;;;6.38;5.40;;;12.90;99.90;;;;;;4993640;28;20030;-76
2023/05/08 04:06:44;;;;;;;6.18;5.57;;;12.90;99.90;;;;;;4993527;28;20050;-76
2023/05/08 04:09:39;;;;;;;6.13;5.53;;;12.90;99.90;;;;;;4990458;28;20725;-76
2023/05/08 04:12:37;;;;;;;8.45;6.68;;;12.80;99.90;;;;;;4980584;28;20038;-77
2023/05/08 04:15:15;;;;;;;10.60;7.65;;;12.70;99.90;;;;;;4964896;28;20122;-77
2023/05/08 04:18:03;;;;;;;8.52;6.50;;;12.60;99.90;;;;;;4990189;28;20038;-76
2023/05/08 04:20:30;;;;;;;10.45;6.85;;;12.60;99.90;;;;;;4970203;28;20029;-78
2023/05/08 04:22:57;;;;;;;10.50;8.23;;;12.50;99.90;;;;;;4992890;28;20077;-78
2023/05/08 04:25:23;;;;;;;9.57;7.88;;;12.50;99.90;;;;;;4981041;28;20139;-77
2023/05/08 04:27:50;;;;;;;7.85;6.20;;;12.50;99.90;;;;;;5001853;28;20506;-77
2023/05/08 04:30:16;;;;;;;10.20;7.63;;;12.50;99.90;;;;;;4977611;28;20114;-80
2023/05/08 04:32:43;;;;;;;7.70;6.97;;;12.40;99.90;;;;;;4979271;28;20031;-78
2023/05/08 04:35:10;;;;;;;9.77;6.70;;;12.40;99.90;;;;;;4970422;28;20027;-79
2023/05/08 04:37:35;;;;;;;7.25;6.00;;;12.40;99.90;;;;;;4969724;28;20412;-77
2023/05/08 04:40:03;;;;;;;6.68;6.00;;;12.40;99.90;;;;;;4970170;28;20022;-77
2023/05/08 04:42:29;;;;;;;6.50;5.90;;;12.50;99.90;;;;;;4991694;28;20038;-77
2023/05/08 04:44:55;;;;;;;6.95;5.82;;;12.40;99.90;;;;;;4983043;28;20097;-78
2023/05/08 04:47:22;;;;;;;6.72;5.93;;;12.50;99.90;;;;;;4998082;28;20026;-80
2023/05/08 04:49:49;;;;;;;6.78;5.78;;;12.50;99.90;;;;;;5007305;28;20030;-78
2023/05/08 04:52:15;;;;;;;8.07;6.40;;;12.50;99.90;;;;;;5009783;28;20113;-78
2023/05/08 04:54:41;;;;;;;7.38;6.10;;;12.50;99.90;;;;;;5001010;28;20034;-79
2023/05/08 04:57:07;;;;;;;7.60;6.15;;;12.50;99.90;;;;;;4997926;28;20033;-78
2023/05/08 04:59:32;;;;;;;7.53;5.90;;;12.50;99.90;;;;;;4990937;28;20031;-78
2023/05/08 05:02:01;;;;;;;6.75;5.43;;;12.50;99.90;;;;;;4977392;28;20031;-77
2023/05/08 05:04:27;;;;;;;6.20;5.30;;;12.50;99.90;;;;;;4975891;28;20023;-78
2023/05/08 05:06:52;;;;;;;4.63;4.07;;;12.50;99.90;;;;;;4975905;28;20029;-78
2023/05/08 05:09:18;;;;;;;4.72;4.22;;;12.60;99.90;;;;;;4977719;28;20035;-79
2023/05/08 05:11:44;;;;;;;5.80;5.18;;;12.70;99.90;;;;;;4996217;28;20063;-79
2023/05/08 05:14:09;;;;;;;5.65;4.93;;;12.70;99.90;;;;;;4995438;28;20057;-78
2023/05/08 05:16:35;;;;;;;5.72;4.65;;;12.60;99.90;;;;;;4994886;28;20022;-78
2023/05/08 05:19:01;;;;;;;4.35;3.95;;;12.70;99.90;;;;;;4994110;28;20027;-77
2023/05/08 05:21:27;;;;;;;6.00;5.07;;;12.70;99.90;;;;;;4996234;28;20058;-78
2023/05/08 05:23:53;;;;;;;6.53;5.80;;;12.70;99.90;;;;;;4978313;28;20113;-79
2023/05/08 05:26:20;;;;;;;7.40;6.53;;;12.70;99.90;;;;;;5002838;28;20030;-78
2023/05/08 05:28:46;;;;;;;6.18;5.43;;;12.60;99.60;;;;;;5007000;28;20082;-79
2023/05/08 05:31:11;;;;;;;6.72;5.70;;;12.60;99.90;;;;;;5003780;28;20607;-79
2023/05/08 05:33:37;;;;;;;4.28;3.88;;;12.60;99.90;;;;;;5003019;28;20045;-78
2023/05/08 05:36:03;;;;;;;5.07;4.38;;;12.70;99.90;;;;;;4987037;28;20510;-79
2023/05/08 05:38:29;;;;;;;4.63;4.22;;;12.70;99.90;;;;;;4989494;28;20045;-78
2023/05/08 05:40:54;;;;;;;5.32;4.75;;;12.80;99.80;;;;;;5007400;28;20027;-78
2023/05/08 05:43:20;;;;;;;5.10;4.30;;;12.80;99.60;;;;;;5004151;28;20032;-78
2023/05/08 05:45:45;;;;;;;5.22;4.68;;;12.70;99.80;;;;;;5008505;28;20098;-79
2023/05/08 05:48:11;;;;;;;5.72;5.00;;;12.70;99.80;;;;;;4986878;28;20034;-78
2023/05/08 05:50:38;;;;;;;6.68;4.35;;;12.80;99.80;;;;;;5008005;28;20082;-79
2023/05/08 05:53:03;;;;;;;8.27;6.18;;;12.80;99.60;;;;;;5010799;28;20026;-78
2023/05/08 05:55:29;;;;;;;6.20;5.60;;;12.70;99.20;;;;;;4993725;28;20065;-78
2023/05/08 05:57:55;;;;;;;7.78;5.97;;;12.70;99.40;;;;;;5003131;28;20041;-78
2023/05/08 06:00:21;;;;;;;8.38;6.35;;;12.60;99.20;;;;;;5037442;28;20034;-78
2023/05/08 06:02:47;;;;;;;7.57;5.18;;;12.60;99.10;;;;;;5016797;28;20090;-76
2023/05/08 06:05:13;;;;;;;7.25;5.70;;;12.50;99.40;;;;;;4998724;28;20064;-79
2023/05/08 06:07:38;;;;;;;5.50;4.88;;;12.50;99.70;;;;;;4978724;28;20038;-78
2023/05/08 06:10:05;;;;;;;5.72;4.82;;;12.50;99.90;;;;;;4998655;28;20074;-77
2023/05/08 06:12:31;;;;;;;6.93;5.63;;;12.60;99.80;;;;;;4998323;28;20027;-77
2023/05/08 06:14:56;;;;;;;6.03;5.38;;;12.60;99.20;;;;;;5000841;28;20086;-77
2023/05/08 06:17:22;;;;;;;5.85;4.93;;;12.60;99.40;;;;;;4999846;28;20038;-77
2023/05/08 06:19:49;;;;;;;4.63;3.92;;;12.70;99.40;;;;;;5000244;28;20063;-77
2023/05/08 06:22:16;;;;;;;5.30;4.60;;;12.80;99.20;;;;;;4992299;28;20495;-81
2023/05/08 06:24:42;;;;;;;8.18;5.80;;;12.90;99.00;;;;;;4985726;28;20035;-77
2023/05/08 06:27:08;;;;;;;5.90;5.30;;;13.00;98.60;;;;;;4991876;28;20090;-77
2023/05/08 06:29:34;;;;;;;6.72;5.03;;;13.00;98.30;;;;;;5018584;28;20034;-76
2023/05/08 06:31:59;;;;;;;6.18;4.47;;;13.00;98.40;;;;;;5017345;28;20017;-77
2023/05/08 06:34:25;;;;;;;3.80;3.50;;;13.20;98.50;;;;;;5000804;28;20022;-77
2023/05/08 06:36:52;;;;;;;5.63;4.65;;;13.30;98.20;;;;;;4984017;28;20023;-76
2023/05/08 06:39:20;;;;;;;4.30;3.90;;;13.40;97.70;;;;;;4982143;28;20038;-78
2023/05/08 06:41:48;;;;;;;4.50;3.78;;;13.50;97.50;;;;;;4999400;28;20022;-76
2023/05/08 06:44:15;;;;;;;5.18;4.65;;;13.60;97.20;;;;;;4980589;28;20106;-77
2023/05/08 06:46:40;;;;;;;4.43;4.03;;;13.70;96.90;;;;;;4979565;28;20019;-77
2023/05/08 06:49:07;;;;;;;5.18;4.47;;;13.70;96.80;;;;;;4981815;28;20030;-79
2023/05/08 06:51:34;;;;;;;5.00;4.50;;;13.70;96.70;;;;;;4979603;28;20030;-78
2023/05/08 06:54:00;;;;;;;4.93;3.53;;;13.80;96.70;;;;;;4980279;28;20099;-81
2023/05/08 06:56:28;;;;;;;3.63;3.20;;;14.10;96.80;;;;;;4987514;28;20045;-78
2023/05/08 06:59:02;;;;;;;3.22;2.95;;;;;;;;;;4998115;28;20038;-77
2023/05/08 07:01:28;;;;;;;4.72;3.80;;;14.70;95.70;;;;;;4983436;28;20023;-80
2023/05/08 07:03:53;;;;;;;4.25;3.88;;;14.80;95.10;;;;;;5000908;28;20056;-75
2023/05/08 07:06:19;;;;;;;4.68;3.72;;;14.60;94.70;;;;;;5000192;28;20049;-77
2023/05/08 07:08:45;;;;;;;7.85;5.88;;;14.50;94.90;;;;;;4983098;28;20031;-79
2023/05/08 07:11:10;;;;;;;6.85;5.82;;;14.40;94.30;;;;;;5000270;28;20030;-78
2023/05/08 07:13:36;;;;;;;6.88;5.35;;;14.20;94.10;;;;;;4999515;28;20038;-77
2023/05/08 07:16:04;;;;;;;5.35;4.53;;;14.00;94.70;;;;;;4998668;28;20034;-78
2023/05/08 07:18:29;;;;;;;8.88;6.63;;;14.00;95.00;;;;;;4998392;28;20138;-79
2023/05/08 07:20:55;;;;;;;7.68;6.50;;;14.00;94.50;;;;;;5000415;28;20046;-78
2023/05/08 07:23:21;;;;;;;6.15;5.38;;;14.00;94.40;;;;;;4999708;28;20038;-81
2023/05/08 07:25:47;;;;;;;8.15;5.15;;;14.00;94.70;;;;;;5004432;28;20049;-78
2023/05/08 07:28:12;;;;;;;7.43;6.68;;;14.20;94.60;;;;;;5012942;28;20133;-77
2023/05/08 07:30:38;;;;;;;8.35;6.03;;;14.30;93.70;;;;;;5020345;28;20026;-79
2023/05/08 07:33:04;;;;;;;6.88;5.25;;;14.30;93.70;;;;;;5019790;28;20037;-79
2023/05/08 07:35:33;;;;;;;6.93;5.18;;;14.30;93.60;;;;;;4984979;28;20041;-79
2023/05/08 07:38:01;;;;;;;6.70;5.63;;;14.20;93.60;;;;;;4980051;28;20061;-80
2023/05/08 07:40:27;;;;;;;5.88;5.38;;;14.30;93.60;;;;;;4963553;28;20033;-79
2023/05/08 07:42:53;;;;;;;8.05;5.70;;;14.30;93.60;;;;;;4980060;28;20396;-78
2023/05/08 07:45:18;;;;;;;6.25;4.47;;;14.40;93.40;;;;;;4979959;28;20117;-80
2023/05/08 07:47:53;;;;;;;4.93;4.45;;;14.60;93.50;;;;;;4981261;28;20027;-79
2023/05/08 07:50:19;;;;;;;5.93;5.15;;;14.90;93.40;;;;;;4980796;28;20030;-80
2023/05/08 07:52:45;;;;;;;8.50;5.05;;;15.10;92.20;;;;;;4993126;28;20010;-78
2023/05/08 07:55:11;;;;;;;7.40;5.68;;;15.10;91.70;;;;;;5015501;28;20073;-77
2023/05/08 07:57:38;;;;;;;7.00;5.93;;;15.10;91.80;;;;;;5030153;28;20045;-79
2023/05/08 08:00:10;;;;;;;7.18;6.22;;;15.10;91.30;;;;;;5021364;28;20114;-78
2023/05/08 08:02:36;;;;;;;6.55;5.80;;;15.20;91.20;;;;;;5001834;28;20420;-79
2023/05/08 08:05:03;;;;;;;6.45;5.40;;;15.20;90.90;;;;;;5017772;28;20022;-78
2023/05/08 08:07:28;;;;;;;5.65;5.07;;;15.30;91.00;;;;;;4983105;28;20027;-78
2023/05/08 08:09:54;;;;;;;8.25;6.55;;;15.40;90.70;;;;;;4980018;28;20041;-77
2023/05/08 08:12:20;;;;;;;6.47;4.93;;;15.60;90.30;;;;;;4981107;28;20030;-78
2023/05/08 08:14:46;;;;;;;4.97;4.47;;;15.60;90.20;;;;;;4965591;28;20098;-78
2023/05/08 08:17:11;;;;;;;4.30;3.90;;;15.70;90.10;;;;;;4979704;28;20088;-78
2023/05/08 08:19:37;;;;;;;7.00;5.68;;;16.00;90.30;;;;;;4997696;28;20030;-77
2023/05/08 08:22:03;;;;;;;5.93;4.45;;;16.30;88.20;;;;;;4997418;28;20050;-78
2023/05/08 08:24:28;;;;;;;5.85;4.13;;;16.40;88.20;;;;;;4998123;28;20026;-78
2023/05/08 08:26:57;;;;;;;7.50;6.72;;;16.60;87.10;;;;;;5009074;28;20022;-78
2023/05/08 08:29:23;;;;;;;5.78;5.20;;;16.60;84.70;;;;;;4987053;28;20117;-79
2023/05/08 08:31:48;;;;;;;5.78;5.22;;;16.50;85.50;;;;;;5001538;28;20061;-79
2023/05/08 08:34:14;;;;;;;5.13;4.63;;;16.40;85.70;;;;;;4984106;28;20038;-79
2023/05/08 08:36:40;;;;;;;5.78;4.53;;;16.50;86.80;;;;;;4998467;28;20090;-81
2023/05/08 08:39:06;;;;;;;4.40;4.00;;;16.60;85.60;;;;;;4980941;28;20029;-80
2023/05/08 08:41:32;;;;;;;3.13;2.85;;;16.80;85.20;;;;;;4985821;28;20533;-81
2023/05/08 08:43:58;;;;;;;3.22;2.92;;;17.10;85.70;;;;;;5006179;28;20095;-78
2023/05/08 08:46:25;;;;;;;2.97;2.78;;;17.50;84.70;;;;;;5008028;28;20126;-81
2023/05/08 08:48:54;;;;;;;3.03;2.72;;;17.90;82.60;;;;;;5003928;28;20096;-81
2023/05/08 08:51:30;;;;;;;5.13;4.63;;;18.20;80.10;;;;;;4983684;28;20080;-80
2023/05/08 08:54:05;;;;;;;4.47;4.05;;;18.30;78.10;;;;;;4998862;28;20365;-80
2023/05/08 08:56:34;;;;;;;4.90;4.38;;;18.30;78.20;;;;;;4992918;28;20026;-82
2023/05/08 08:59:00;;;;;;;3.97;3.63;;;18.40;78.10;;;;;;4979881;28;20023;-81
2023/05/08 09:01:30;;;;;;;5.85;4.63;;;18.50;77.50;;;;;;4979829;28;20027;-81
2023/05/08 09:04:01;;;;;;;4.85;3.85;;;18.40;76.50;;;;;;4979767;28;20027;-79
2023/05/08 09:06:28;;;;;;;3.83;3.20;;;18.50;78.20;;;;;;4980610;28;20023;-80
2023/05/08 09:08:57;;;;;;;3.22;3.00;;;18.70;76.90;;;;;;4984224;28;20499;-80
2023/05/08 09:11:24;;;;;;;4.00;3.60;;;19.20;76.10;;;;;;4981529;28;20035;-79
2023/05/08 09:13:50;;;;;;;4.68;4.28;;;19.60;73.80;;;;;;4980835;28;20094;-80
2023/05/08 09:16:19;;;;;;;5.47;4.60;;;19.70;72.10;;;;;;4982042;28;20034;-80
2023/05/08 09:18:45;;;;;;;4.35;3.88;;;19.40;71.30;;;;;;4991944;28;20072;-80
2023/05/08 09:21:11;;;;;;;6.18;5.53;;;19.20;72.20;;;;;;4994748;28;20074;-80
2023/05/08 09:23:53;;;;;;;5.72;5.22;;;18.90;72.00;;;;;;4984223;28;20100;-80
2023/05/08 09:26:31;;;;;;;6.85;5.47;;;18.70;72.50;;;;;;5013617;28;20344;-80
2023/05/08 09:29:15;;;;;;;6.20;5.57;;;18.60;73.50;;;;;;5023269;28;20030;-80
2023/05/08 09:31:46;;;;;;;8.35;6.75;;;18.50;74.30;;;;;;5023043;28;20049;-81
2023/05/08 09:34:26;;;;;;;8.45;7.65;;;18.50;73.70;;;;;;5004978;28;20057;-83
2023/05/08 09:36:55;;;;;;;7.00;6.30;;;18.40;73.10;;;;;;5004876;28;20026;-81
2023/05/08 09:39:23;;;;;;;7.95;6.03;;;18.20;74.40;;;;;;4982786;28;20411;-82
2023/05/08 09:42:01;;;;;;;6.07;5.47;;;18.10;75.00;;;;;;4984463;28;20030;-82
2023/05/08 09:44:27;;;;;;;5.85;5.18;;;18.20;75.90;;;;;;4984555;28;20026;-81
2023/05/08 09:47:22;;;;;;;6.95;6.25;;;18.20;75.30;;;;;;4991252;28;20034;-81
2023/05/08 09:49:58;;;;;;;5.97;5.40;;;18.40;74.90;;;;;;4988310;28;20031;-81
2023/05/08 09:52:24;;;;;;;6.57;5.82;;;18.50;75.20;;;;;;4969686;28;20031;-80
2023/05/08 09:55:05;;;;;;;5.60;4.97;;;18.70;74.70;;;;;;4992908;28;20474;-80
2023/05/08 09:57:32;;;;;;;5.18;4.65;;;18.90;74.00;;;;;;5013528;28;20034;-81
2023/05/08 10:00:10;;;;;;;4.38;3.97;;;19.30;73.90;;;;;;4991701;28;20042;-80
2023/05/08 10:02:36;;;;;;;7.60;6.80;;;19.60;73.40;;;;;;4994212;28;20030;-80
2023/05/08 10:05:04;;;;;;;7.00;5.95;;;20.10;70.80;;;;;;4988142;28;20023;-81
2023/05/08 10:07:36;;;;;;;6.78;6.07;;;20.10;70.00;;;;;;5005639;28;20070;-81
2023/05/08 10:10:05;;;;;;;6.43;5.70;;;20.10;70.40;;;;;;4988156;28;20034;-80
2023/05/08 10:12:32;;;;;;;5.30;4.78;;;20.10;70.20;;;;;;5005380;28;20073;-81
2023/05/08 10:14:58;;;;;;;9.68;6.15;;;20.20;70.10;;;;;;4987220;28;20034;-81
2023/05/08 10:17:52;;;;;;;5.15;4.65;;;20.20;69.00;;;;;;4978708;28;20027;-81
2023/05/08 10:20:20;;;;;;;5.13;4.60;;;20.10;69.30;;;;;;4987941;28;20485;-81
2023/05/08 10:22:48;;;;;;;6.00;5.40;;;20.20;69.30;;;;;;4971488;28;20033;-79
2023/05/08 10:25:19;;;;;;;4.85;4.45;;;20.10;68.90;;;;;;5003489;28;20018;-80
2023/05/08 10:28:16;;;;;;;5.95;5.35;;;20.20;69.30;;;;;;5009328;28;20049;-80
2023/05/08 10:30:46;;;;;;;6.93;6.22;;;20.10;69.20;;;;;;5008737;28;20033;-80
2023/05/08 10:33:14;;;;;;;9.75;7.40;;;20.20;69.00;;;;;;5008106;28;20026;-81
2023/05/08 10:35:41;;;;;;;8.02;6.82;;;20.10;67.40;;;;;;5008159;28;20451;-81
2023/05/08 10:38:10;;;;;;;8.57;6.68;;;19.90;68.80;;;;;;4989506;28;20037;-80
2023/05/08 10:40:37;;;;;;;7.97;6.55;;;19.90;69.00;;;;;;5007925;28;20022;-80
2023/05/08 10:43:05;;;;;;;7.90;7.18;;;20.00;69.20;;;;;;4991963;28;20061;-80
2023/05/08 10:45:32;;;;;;;9.38;8.38;;;20.00;69.10;;;;;;4992534;28;20023;-80
2023/05/08 10:48:33;;;;;;;8.75;7.45;;;19.80;69.00;;;;;;5009157;28;20011;-80
2023/05/08 10:51:26;;;;;;;5.97;5.40;;;19.80;69.70;;;;;;4996617;28;20120;-80
2023/05/08 10:53:54;;;;;;;;;;;19.90;70.80;;;;;;4998320;28;20018;-82
2023/05/08 10:56:29;;;;;;;9.00;7.28;;;20.40;70.10;;;;;;4976026;28;19906;-81
2023/05/08 10:58:56;;;;;;;7.50;6.80;;;20.70;67.50;;;;;;4985617;28;20077;-80
2023/05/08 11:01:23;;;;;;;9.05;6.75;;;20.70;67.60;;;;;;4991117;28;20029;-79
2023/05/08 11:03:49;;;;;;;6.03;5.43;;;20.50;68.20;;;;;;4975507;28;20022;-78
2023/05/08 11:06:16;;;;;;;10.20;8.45;;;20.80;68.70;;;;;;4992378;28;20029;-77
2023/05/08 11:08:48;;;;;;;10.55;8.30;;;21.10;66.50;;;;;;4990115;28;20060;-79
2023/05/08 11:11:22;;;;;;;;;;;21.10;66.20;;;;;;4986261;28;20031;-79
2023/05/08 11:13:54;;;;;;;7.40;6.68;;;21.10;66.80;;;;;;4986038;28;19906;-81
2023/05/08 11:16:58;;;;;;;14.20;9.32;;;21.10;66.30;;;;;;4996234;28;20032;-79
2023/05/08 11:19:25;;;;;;;7.68;6.88;;;20.80;65.70;;;;;;4998364;28;20027;-80
2023/05/08 11:22:12;;;;;;;7.53;6.63;;;20.50;67.30;;;;;;5001791;28;20041;-80
2023/05/08 11:24:51;;;;;;;6.25;5.65;;;20.20;68.00;;;;;;4976465;28;20448;-79
2023/05/08 11:27:17;;;;;;;8.05;7.30;;;20.20;68.70;;;;;;4993903;28;20022;-80
2023/05/08 11:29:43;;;;;;;5.82;5.30;;;20.10;68.80;;;;;;4994882;28;20522;-79
2023/05/08 11:32:09;;;;;;;7.68;6.72;;;20.20;69.20;;;;;;4999073;28;20054;-79
2023/05/08 11:34:41;;;;;;;12.10;10.48;;;20.30;68.60;;;;;;4994893;28;20034;-79
2023/05/08 11:37:15;;;;;;;7.53;6.82;;;20.40;66.70;;;;;;5000361;28;20026;-79
2023/05/08 11:39:41;;;;;;;8.82;7.68;;;20.20;67.70;;;;;;5002064;28;20113;-79
2023/05/08 11:42:27;;;;;;;5.95;5.35;;;20.00;68.70;;;;;;5003872;28;20019;-79
2023/05/08 11:45:07;;;;;;;5.97;5.47;;;20.00;69.00;;;;;;5002982;28;20046;-79
2023/05/08 11:47:41;;;;;;;5.40;4.30;;;20.00;69.40;;;;;;5001451;28;20037;-78
2023/05/08 11:50:09;;;;;;;4.40;4.00;;;20.30;69.00;;;;;;5001627;28;20022;-79
2023/05/08 11:52:36;;;;;;;3.92;3.63;;;20.70;68.60;;;;;;4986082;28;20030;-79
2023/05/08 11:55:10;;;;;;;6.90;6.20;;;21.00;67.60;;;;;;5007235;28;20033;-79
2023/05/08 11:57:37;;;;;;;10.30;7.22;;;21.20;66.10;;;;;;5016218;28;20034;-79
2023/05/08 12:00:09;;;;;;;9.93;8.88;;;20.90;66.70;;;;;;5029006;28;20022;-79
2023/05/08 12:03:14;;;;;;;8.45;7.55;;;20.60;67.70;;;;;;5220002;23;20065;-80
2023/05/08 12:13:28;;;;;;;8.82;7.07;;;19.90;69.20;;;;;;4875446;29;20089;-82
2023/05/08 12:27:34;;;;;;;;;;;;;;;;;;;;;
2023/05/08 12:33:04;;;;;;;5.78;5.25;;;21.30;64.30;;;;;;5007340;23;20062;-80
2023/05/08 12:35:38;;;;;;;6.03;5.43;;;21.00;64.20;;;;;;5002192;28;20038;-79
2023/05/08 12:38:16;;;;;;;6.72;6.13;;;21.00;65.10;;;;;;5020234;28;20026;-81
2023/05/08 12:41:40;;;;;;;6.00;5.40;;;21.00;65.30;;;;;;5004677;28;20114;-81
2023/05/08 12:45:07;;;;;;;;;;;;;;;;;;;;;
2023/05/08 12:51:39;;;;;;;;;;;;;;;;;;;;;
2023/05/08 12:54:05;;;;;;;13.05;9.32;;;19.90;67.70;;;;;;4919929;29;20124;-80
2023/05/08 12:57:05;;;;;;;10.77;8.70;;;19.60;69.90;;;;;;4955316;29;20046;-80
2023/05/08 12:59:44;;;;;;;11.93;10.38;;;19.60;70.60;;;;;;4940608;29;20063;-79
2023/05/08 13:02:21;;;;;;;15.68;13.45;;;19.70;70.40;;;;;;5001462;28;20030;-79
2023/05/08 13:05:27;;;;;;;9.18;8.27;;;19.60;69.90;;;;;;5032000;28;20010;-80
2023/05/08 13:08:02;;;;;;;10.73;8.07;;;19.50;70.90;;;;;;5012179;28;20035;-80
2023/05/08 13:10:45;;;;;;;15.05;12.25;;;19.50;70.90;;;;;;5012971;28;20010;-80
2023/05/08 13:13:12;;;;;;;12.23;10.52;;;19.40;70.40;;;;;;5011628;28;20010;-80
2023/05/08 13:15:40;;;;;;;11.05;9.13;;;19.20;71.80;;;;;;5011082;28;20026;-79
2023/05/08 13:18:06;;;;;;;11.40;10.07;;;19.10;72.50;;;;;;4994971;28;20026;-78
2023/05/08 13:20:33;;;;;;;11.30;10.10;;;19.10;72.90;;;;;;5011710;28;20023;-80
2023/05/08 13:22:59;;;;;;;13.93;11.02;;;19.10;72.80;;;;;;5026030;28;20121;-80
2023/05/08 13:25:26;;;;;;;16.23;12.00;;;19.00;72.90;;;;;;5038322;28;20021;-81
2023/05/08 13:27:52;;;;;;;11.60;10.40;;;18.90;72.60;;;;;;5021321;28;20030;-81
2023/05/08 13:30:18;;;;;;;14.43;10.75;;;18.80;73.50;;;;;;5045584;28;20029;-81
2023/05/08 13:32:43;;;;;;;14.88;12.48;;;18.70;73.30;;;;;;5046047;28;20016;-82
2023/05/08 13:35:09;;;;;;;12.63;11.32;;;18.70;73.20;;;;;;5052409;28;20097;-80